createdAt,value
2022-09-24T00:01:26.440Z,98793.53
2022-09-24T00:03:56.480Z,98793.69
2022-09-24T00:06:23.503Z,98790.88
2022-09-24T00:08:53.018Z,98791.03
2022-09-24T00:11:21.784Z,98787.59
2022-09-24T00:13:49.779Z,98792.78
2022-09-24T00:16:17.963Z,98791.03
2022-09-24T00:18:44.811Z,98788.50
2022-09-24T00:21:32.403Z,98783.28
2022-09-24T00:24:01.624Z,98794.75
2022-09-24T00:26:47.548Z,98785.38
2022-09-24T00:29:17.898Z,98792.25
2022-09-24T00:31:44.663Z,98787.00
2022-09-24T00:34:12.079Z,98793.66
2022-09-24T00:36:38.897Z,98787.59
2022-09-24T00:39:06.415Z,98786.13
2022-09-24T00:41:36.113Z,98791.50
2022-09-24T00:44:47.738Z,98789.72
2022-09-24T00:47:31.722Z,98783.03
2022-09-24T00:50:21.049Z,98772.72
2022-09-24T00:52:57.920Z,98780.34
2022-09-24T00:55:25.234Z,98776.59
2022-09-24T00:57:57.697Z,98778.03
2022-09-24T01:00:25.021Z,98774.63
2022-09-24T01:02:55.828Z,98777.16
2022-09-24T01:05:22.921Z,98768.84
2022-09-24T01:07:49.730Z,98766.91
2022-09-24T01:10:38.174Z,98773.78
2022-09-24T01:13:20.729Z,98767.59
2022-09-24T01:16:04.578Z,98748.84
2022-09-24T01:18:37.390Z,98765.13
2022-09-24T01:21:29.755Z,98772.34
2022-09-24T01:24:47.050Z,98767.09
2022-09-24T01:27:20.780Z,98769.03
2022-09-24T01:30:02.888Z,98767.50
2022-09-24T01:32:40.825Z,98771.09
2022-09-24T01:35:25.072Z,98763.09
2022-09-24T01:37:59.220Z,98772.50
2022-09-24T01:40:28.024Z,98767.84
2022-09-24T01:42:57.129Z,98766.88
2022-09-24T01:45:25.713Z,98766.03
2022-09-24T01:47:52.595Z,98765.34
2022-09-24T01:50:19.932Z,98778.47
2022-09-24T01:52:58.533Z,98771.44
2022-09-24T01:55:28.527Z,98768.09
2022-09-24T01:57:59.912Z,98754.56
2022-09-24T02:00:27.579Z,98753.72
2022-09-24T02:03:04.945Z,98760.50
2022-09-24T02:05:39.111Z,98751.25
2022-09-24T02:08:25.267Z,98747.66
2022-09-24T02:10:56.769Z,98731.91
2022-09-24T02:13:26.384Z,98731.50
2022-09-24T02:15:57.270Z,98729.00
2022-09-24T02:18:29.297Z,98719.78
2022-09-24T02:20:56.740Z,98722.94
2022-09-24T02:23:24.963Z,98736.69
2022-09-24T02:26:01.501Z,98737.53
2022-09-24T02:28:28.981Z,98732.53
2022-09-24T02:31:00.065Z,98735.56
2022-09-24T02:33:46.031Z,98729.47
2022-09-24T02:36:12.852Z,98728.09
2022-09-24T02:38:39.505Z,98724.09
2022-09-24T02:41:08.615Z,98721.09
2022-09-24T02:43:36.793Z,98727.00
2022-09-24T02:46:03.583Z,98711.81
2022-09-24T02:48:30.279Z,98709.88
2022-09-24T02:50:57.158Z,98696.25
2022-09-24T02:53:23.860Z,98701.03
2022-09-24T02:55:50.653Z,98696.09
2022-09-24T02:58:17.427Z,98686.72
2022-09-24T03:00:44.147Z,98691.44
2022-09-24T03:03:10.924Z,98687.25
2022-09-24T03:05:37.775Z,98687.13
2022-09-24T03:08:04.743Z,98689.03
2022-09-24T03:10:31.498Z,98684.25
2022-09-24T03:12:58.472Z,98673.34
2022-09-24T03:15:26.081Z,98678.47
2022-09-24T03:17:52.726Z,98678.03
2022-09-24T03:20:19.430Z,98685.63
2022-09-24T03:22:51.606Z,98686.72
2022-09-24T03:25:21.969Z,98686.28
2022-09-24T03:27:48.752Z,98685.31
2022-09-24T03:30:34.348Z,98679.53
2022-09-24T03:33:01.073Z,98680.38
2022-09-24T03:35:27.761Z,98690.34
2022-09-24T03:37:54.388Z,98688.13
2022-09-24T03:40:21.129Z,98683.97
2022-09-24T03:42:47.837Z,98674.19
2022-09-24T03:45:14.696Z,98677.34
2022-09-24T03:47:42.916Z,98670.16
2022-09-24T03:50:12.770Z,98682.56
2022-09-24T03:52:39.893Z,98664.88
2022-09-24T03:55:07.670Z,98674.56
2022-09-24T03:57:34.453Z,98671.53
2022-09-24T04:00:02.035Z,98679.00
2022-09-24T04:02:28.795Z,98671.81
2022-09-24T04:04:55.502Z,98671.81
2022-09-24T04:07:22.263Z,98671.00
2022-09-24T04:09:48.987Z,98678.34
2022-09-24T04:12:15.722Z,98677.53
2022-09-24T04:14:45.374Z,98680.72
2022-09-24T04:17:11.987Z,98677.69
2022-09-24T04:19:39.870Z,98678.91
2022-09-24T04:22:06.593Z,98683.75
2022-09-24T04:24:33.383Z,98689.78
2022-09-24T04:27:00.095Z,98687.47
2022-09-24T04:29:26.861Z,98695.72
2022-09-24T04:31:53.631Z,98689.13
2022-09-24T04:34:21.485Z,98699.75
2022-09-24T04:36:48.374Z,98694.81
2022-09-24T04:39:15.829Z,98702.38
2022-09-24T04:41:42.575Z,98704.84
2022-09-24T04:44:09.430Z,98700.19
2022-09-24T04:46:36.316Z,98710.41
2022-09-24T04:49:03.338Z,98701.69
2022-09-24T04:51:30.093Z,98700.47
2022-09-24T04:53:56.742Z,98706.38
2022-09-24T04:56:23.377Z,98699.22
2022-09-24T04:58:51.928Z,98702.28
2022-09-24T05:01:19.501Z,98699.09
2022-09-24T05:03:46.394Z,98704.59
2022-09-24T05:06:13.592Z,98708.06
2022-09-24T05:08:40.340Z,98698.13
2022-09-24T05:11:07.066Z,98699.09
2022-09-24T05:13:35.365Z,98675.53
2022-09-24T05:16:03.432Z,98690.13
2022-09-24T05:18:30.234Z,98686.84
2022-09-24T05:20:57.021Z,98690.56
2022-09-24T05:23:23.762Z,98692.63
2022-09-24T05:26:09.338Z,98697.84
2022-09-24T05:28:36.419Z,98683.81
2022-09-24T05:31:03.271Z,98689.31
2022-09-24T05:33:30.180Z,98693.16
2022-09-24T05:35:58.223Z,98692.34
2022-09-24T05:38:25.171Z,98686.56
2022-09-24T05:40:51.965Z,98687.25
2022-09-24T05:43:21.969Z,98695.50
2022-09-24T05:45:51.584Z,98688.78
2022-09-24T05:48:18.371Z,98685.44
2022-09-24T05:50:45.195Z,98683.81
2022-09-24T05:53:11.941Z,98688.88
2022-09-24T05:55:38.886Z,98686.84
2022-09-24T05:58:07.691Z,98684.34
2022-09-24T06:00:36.198Z,98679.13
2022-09-24T06:03:08.226Z,98671.41
2022-09-24T06:05:35.918Z,98661.63
2022-09-24T06:08:03.834Z,98677.34
2022-09-24T06:10:30.761Z,98673.50
2022-09-24T06:12:57.490Z,98670.84
2022-09-24T06:15:24.436Z,98676.47
2022-09-24T06:17:53.821Z,98680.63
2022-09-24T06:20:21.607Z,98683.81
2022-09-24T06:22:48.620Z,98676.38
2022-09-24T06:25:15.463Z,98689.03
2022-09-24T06:27:42.216Z,98683.38
2022-09-24T06:30:09.657Z,98688.78
2022-09-24T06:32:36.517Z,98697.69
2022-09-24T06:35:03.853Z,98681.56
2022-09-24T06:37:30.663Z,98677.41
2022-09-24T06:39:57.375Z,98677.34
2022-09-24T06:42:24.497Z,98691.00
2022-09-24T06:44:51.694Z,98699.66
2022-09-24T06:47:18.726Z,98690.91
2022-09-24T06:49:45.363Z,98696.78
2022-09-24T06:52:12.352Z,98696.66
2022-09-24T06:54:39.107Z,98691.22
2022-09-24T06:57:07.023Z,98695.72
2022-09-24T06:59:33.710Z,98706.34
2022-09-24T07:02:00.425Z,98699.00
2022-09-24T07:04:27.169Z,98696.38
2022-09-24T07:07:12.506Z,98697.59
2022-09-24T07:09:41.611Z,98698.19
2022-09-24T07:12:09.103Z,98697.69
2022-09-24T07:14:35.866Z,98708.50
2022-09-24T07:17:02.600Z,98706.72
2022-09-24T07:19:29.309Z,98710.66
2022-09-24T07:21:56.062Z,98717.03
2022-09-24T07:24:22.726Z,98712.25
2022-09-24T07:26:49.717Z,98725.06
2022-09-24T07:29:16.520Z,98726.34
2022-09-24T07:31:43.181Z,98724.78
2022-09-24T07:34:10.089Z,98722.69
2022-09-24T07:36:37.060Z,98722.13
2022-09-24T07:39:04.099Z,98721.88
2022-09-24T07:41:30.826Z,98733.22
2022-09-24T07:43:57.709Z,98725.53
2022-09-24T07:46:24.976Z,98722.59
2022-09-24T07:48:58.097Z,98717.06
2022-09-24T07:51:27.842Z,98724.88
2022-09-24T07:53:58.135Z,98718.50
2022-09-24T07:56:25.677Z,98711.13
2022-09-24T07:58:53.737Z,98710.34
2022-09-24T08:01:20.740Z,98719.09
2022-09-24T08:03:47.825Z,98716.66
2022-09-24T08:06:14.691Z,98709.88
2022-09-24T08:08:41.478Z,98717.13
2022-09-24T08:11:10.871Z,98718.00
2022-09-24T08:13:38.217Z,98717.69
2022-09-24T08:16:06.342Z,98714.22
2022-09-24T08:18:33.609Z,98714.72
2022-09-24T08:21:05.396Z,98713.38
2022-09-24T08:23:33.189Z,98714.84
2022-09-24T08:26:00.638Z,98708.72
2022-09-24T08:28:27.479Z,98720.97
2022-09-24T08:31:01.000Z,98708.94
2022-09-24T08:33:28.562Z,98705.28
2022-09-24T08:35:55.359Z,98707.44
2022-09-24T08:38:22.044Z,98707.72
2022-09-24T08:41:19.916Z,98695.34
2022-09-24T08:43:53.445Z,98693.28
2022-09-24T08:46:44.991Z,98702.59
2022-09-24T08:49:17.396Z,98698.41
2022-09-24T08:51:54.523Z,98699.41
2022-09-24T08:54:24.347Z,98700.31
2022-09-24T08:56:53.385Z,98699.91
2022-09-24T08:59:33.689Z,98694.78
2022-09-24T09:02:19.240Z,98701.69
2022-09-24T09:04:58.612Z,98695.63
2022-09-24T09:07:46.118Z,98697.06
2022-09-24T09:10:19.487Z,98705.09
2022-09-24T09:12:54.433Z,98703.69
2022-09-24T09:15:34.341Z,98704.31
2022-09-24T09:18:20.141Z,98711.81
2022-09-24T09:20:48.407Z,98706.59
2022-09-24T09:23:44.714Z,98711.97
2022-09-24T09:26:12.068Z,98712.09
2022-09-24T09:28:38.689Z,98708.78
2022-09-24T09:31:52.536Z,98711.53
2022-09-24T09:34:37.822Z,98709.72
2022-09-24T09:37:36.767Z,98703.84
2022-09-24T09:40:19.986Z,98711.91
2022-09-24T09:42:47.508Z,98714.28
2022-09-24T09:45:28.503Z,98711.56
2022-09-24T09:47:57.272Z,98703.63
2022-09-24T09:50:36.972Z,98705.69
2022-09-24T09:53:05.163Z,98705.59
2022-09-24T09:55:36.432Z,98700.94
2022-09-24T09:58:22.357Z,98699.78
2022-09-24T10:00:50.018Z,98703.31
2022-09-24T10:03:26.385Z,98703.56
2022-09-24T10:05:55.810Z,98705.00
2022-09-24T10:08:24.131Z,98701.38
2022-09-24T10:10:59.238Z,98703.72
2022-09-24T10:13:26.885Z,98700.03
2022-09-24T10:15:58.568Z,98689.97
2022-09-24T10:18:47.673Z,98696.91
2022-09-24T10:21:28.163Z,98694.75
2022-09-24T10:23:59.577Z,98695.28
2022-09-24T10:26:44.798Z,98683.78
2022-09-24T10:29:36.230Z,98687.81
2022-09-24T10:32:04.639Z,98695.06
2022-09-24T10:34:31.762Z,98683.00
2022-09-24T10:37:10.191Z,98681.38
2022-09-24T10:39:38.242Z,98674.63
2022-09-24T10:42:05.674Z,98680.63
2022-09-24T10:44:38.718Z,98682.47
2022-09-24T10:47:17.642Z,98678.69
2022-09-24T10:50:06.569Z,98677.06
2022-09-24T10:53:14.331Z,98678.84
2022-09-24T10:55:58.452Z,98686.22
2022-09-24T10:59:30.111Z,98682.50
2022-09-24T11:02:26.463Z,98673.13
2022-09-24T11:05:00.802Z,98686.28
2022-09-24T11:08:18.830Z,98684.03
2022-09-24T11:11:12.232Z,98682.63
2022-09-24T11:14:02.738Z,98686.56
2022-09-24T11:17:07.002Z,98681.13
2022-09-24T11:20:21.301Z,98678.72
2022-09-24T11:23:13.134Z,98676.66
2022-09-24T11:26:04.508Z,98684.50
2022-09-24T11:29:11.228Z,98662.84
2022-09-24T11:31:45.975Z,98664.75
2022-09-24T11:35:00.383Z,98663.75
2022-09-24T11:38:05.116Z,98656.78
2022-09-24T11:40:54.022Z,98652.69
2022-09-24T11:43:45.621Z,98642.66
2022-09-24T11:46:48.777Z,98636.72
2022-09-24T11:49:22.633Z,98636.72
2022-09-24T11:52:09.559Z,98634.03
2022-09-24T11:55:06.367Z,98630.38
2022-09-24T11:57:37.300Z,98634.06
2022-09-24T12:00:08.562Z,98630.16
2022-09-24T12:02:44.785Z,98630.97
2022-09-24T12:05:38.283Z,98632.22
2022-09-24T12:08:16.982Z,98632.22
2022-09-24T12:10:50.321Z,98629.34
2022-09-24T12:13:21.585Z,98623.19
2022-09-24T12:16:02.059Z,98630.56
2022-09-24T12:18:57.549Z,98625.66
2022-09-24T12:21:28.458Z,98625.66
2022-09-24T12:24:06.651Z,98624.22
2022-09-24T12:26:37.069Z,98617.47
2022-09-24T12:29:57.414Z,98628.53
2022-09-24T12:32:57.263Z,98626.47
2022-09-24T12:35:33.509Z,98619.53
2022-09-24T12:38:15.194Z,98630.59
2022-09-24T12:40:56.346Z,98617.47
2022-09-24T12:43:29.014Z,98628.94
2022-09-24T12:45:59.679Z,98626.47
2022-09-24T12:48:26.654Z,98629.75
2022-09-24T12:50:59.636Z,98631.00
2022-09-24T12:53:32.854Z,98632.44
2022-09-24T12:56:00.751Z,98623.19
2022-09-24T12:58:30.948Z,98622.38
2022-09-24T13:01:11.829Z,98617.47
2022-09-24T13:03:46.002Z,98614.59
2022-09-24T13:06:32.952Z,98616.63
2022-09-24T13:09:00.051Z,98613.78
2022-09-24T13:11:30.068Z,98611.50
2022-09-24T13:14:04.371Z,98621.72
2022-09-24T13:16:32.450Z,98611.25
2022-09-24T13:19:00.518Z,98606.38
2022-09-24T13:21:29.203Z,98615.00
2022-09-24T13:23:56.495Z,98614.19
2022-09-24T13:26:33.964Z,98608.06
2022-09-24T13:29:23.736Z,98600.25
2022-09-24T13:32:00.703Z,98611.31
2022-09-24T13:34:29.236Z,98606.38
2022-09-24T13:37:20.274Z,98599.84
2022-09-24T13:39:59.380Z,98594.31
2022-09-24T13:42:50.349Z,98603.53
2022-09-24T13:45:24.115Z,98597.41
2022-09-24T13:47:56.852Z,98603.16
2022-09-24T13:50:27.877Z,98605.78
2022-09-24T13:53:17.947Z,98598.63
2022-09-24T13:55:46.285Z,98594.94
2022-09-24T13:58:35.937Z,98601.28
2022-09-24T14:01:19.591Z,98601.09
2022-09-24T14:04:27.165Z,98601.50
2022-09-24T14:06:55.770Z,98594.72
2022-09-24T14:09:49.468Z,98595.34
2022-09-24T14:12:21.496Z,98597.81
2022-09-24T14:14:57.614Z,98586.53
2022-09-24T14:17:25.530Z,98594.72
2022-09-24T14:19:57.207Z,98584.28
2022-09-24T14:22:30.956Z,98589.44
2022-09-24T14:25:04.806Z,98597.59
2022-09-24T14:27:32.905Z,98582.41
2022-09-24T14:30:05.670Z,98587.75
2022-09-24T14:32:35.395Z,98588.97
2022-09-24T14:35:30.309Z,98581.63
2022-09-24T14:38:16.645Z,98584.28
2022-09-24T14:41:04.719Z,98586.13
2022-09-24T14:43:38.877Z,98584.50
2022-09-24T14:46:07.200Z,98581.00
2022-09-24T14:48:34.677Z,98576.69
2022-09-24T14:51:01.998Z,98579.19
2022-09-24T14:53:37.413Z,98584.88
2022-09-24T14:56:33.286Z,98577.72
2022-09-24T14:59:00.403Z,98577.31
2022-09-24T15:01:32.767Z,98577.72
2022-09-24T15:04:04.618Z,98575.47
2022-09-24T15:06:36.032Z,98576.28
2022-09-24T15:09:25.758Z,98568.09
2022-09-24T15:11:54.643Z,98569.75
2022-09-24T15:14:27.713Z,98573.44
2022-09-24T15:16:55.271Z,98567.88
2022-09-24T15:19:23.835Z,98570.34
2022-09-24T15:21:56.971Z,98576.47
2022-09-24T15:24:25.333Z,98567.88
2022-09-24T15:27:06.970Z,98565.63
2022-09-24T15:29:33.790Z,98566.44
2022-09-24T15:32:01.708Z,98566.84
2022-09-24T15:34:29.190Z,98559.22
2022-09-24T15:36:59.617Z,98563.78
2022-09-24T15:39:27.451Z,98558.00
2022-09-24T15:41:54.354Z,98566.47
2022-09-24T15:44:25.408Z,98573.63
2022-09-24T15:46:55.294Z,98566.81
2022-09-24T15:49:23.161Z,98574.41
2022-09-24T15:51:52.769Z,98568.06
2022-09-24T15:54:19.848Z,98565.78
2022-09-24T15:56:52.436Z,98567.00
2022-09-24T15:59:20.884Z,98570.69
2022-09-24T16:01:49.191Z,98569.25
2022-09-24T16:04:15.999Z,98569.66
2022-09-24T16:06:43.482Z,98565.78
2022-09-24T16:09:10.315Z,98573.97
2022-09-24T16:11:37.155Z,98566.06
2022-09-24T16:14:03.927Z,98564.41
2022-09-24T16:16:30.676Z,98567.69
2022-09-24T16:18:57.445Z,98574.88
2022-09-24T16:21:24.289Z,98580.81
2022-09-24T16:23:55.557Z,98578.75
2022-09-24T16:26:22.446Z,98579.75
2022-09-24T16:28:51.763Z,98583.19
2022-09-24T16:31:23.658Z,98588.50
2022-09-24T16:33:50.616Z,98587.88
2022-09-24T16:36:17.446Z,98595.00
2022-09-24T16:38:44.212Z,98595.81
2022-09-24T16:41:11.071Z,98588.84
2022-09-24T16:43:37.850Z,98589.22
2022-09-24T16:46:07.035Z,98588.16
2022-09-24T16:48:34.037Z,98590.34
2022-09-24T16:51:06.017Z,98587.03
2022-09-24T16:53:34.877Z,98588.28
2022-09-24T16:56:13.530Z,98591.13
2022-09-24T16:58:41.246Z,98596.13
2022-09-24T17:01:10.384Z,98590.63
2022-09-24T17:03:37.218Z,98593.84
2022-09-24T17:06:04.351Z,98595.13
2022-09-24T17:08:50.611Z,98581.97
2022-09-24T17:11:17.477Z,98597.19
2022-09-24T17:13:44.595Z,98585.88
2022-09-24T17:16:11.544Z,98586.69
2022-09-24T17:18:38.367Z,98589.91
2022-09-24T17:21:08.518Z,98587.13
2022-09-24T17:23:35.660Z,98593.84
2022-09-24T17:26:04.106Z,98599.47
2022-09-24T17:28:35.311Z,98601.56
2022-09-24T17:31:02.835Z,98600.97
2022-09-24T17:33:43.014Z,98600.78
2022-09-24T17:36:12.457Z,98602.63
2022-09-24T17:38:39.348Z,98604.06
2022-09-24T17:41:11.453Z,98607.94
2022-09-24T17:43:40.959Z,98606.50
2022-09-24T17:46:14.096Z,98614.00
2022-09-24T17:48:46.536Z,98616.56
2022-09-24T17:51:22.981Z,98617.66
2022-09-24T17:53:51.539Z,98619.56
2022-09-24T17:56:18.528Z,98619.69
2022-09-24T17:58:47.291Z,98618.84
2022-09-24T18:01:20.467Z,98619.25
2022-09-24T18:03:49.817Z,98626.34
2022-09-24T18:06:17.500Z,98626.97
2022-09-24T18:08:45.533Z,98632.47
2022-09-24T18:11:15.359Z,98635.47
2022-09-24T18:13:42.652Z,98631.28
2022-09-24T18:16:15.084Z,98632.09
2022-09-24T18:18:43.670Z,98635.84
2022-09-24T18:21:12.660Z,98639.94
2022-09-24T18:23:40.371Z,98643.16
2022-09-24T18:26:18.900Z,98642.59
2022-09-24T18:28:54.801Z,98642.94
2022-09-24T18:31:24.487Z,98635.53
2022-09-24T18:33:52.754Z,98649.13
2022-09-24T18:36:21.947Z,98638.66
2022-09-24T18:38:49.030Z,98646.97
2022-09-24T18:41:21.828Z,98643.03
2022-09-24T18:43:49.785Z,98643.66
2022-09-24T18:46:17.994Z,98647.31
2022-09-24T18:48:47.526Z,98650.38
2022-09-24T18:51:20.443Z,98645.38
2022-09-24T18:53:58.566Z,98646.25
2022-09-24T18:56:26.366Z,98654.22
2022-09-24T18:59:04.672Z,98652.47
2022-09-24T19:01:34.091Z,98650.31
2022-09-24T19:04:01.781Z,98652.00
2022-09-24T19:06:30.247Z,98653.94
2022-09-24T19:08:57.748Z,98653.53
2022-09-24T19:11:24.592Z,98651.25
2022-09-24T19:13:53.731Z,98655.47
2022-09-24T19:16:25.738Z,98649.50
2022-09-24T19:18:54.039Z,98652.59
2022-09-24T19:21:22.751Z,98653.47
2022-09-24T19:23:51.605Z,98654.66
2022-09-24T19:26:21.691Z,98661.69
2022-09-24T19:28:52.498Z,98663.06
2022-09-24T19:31:31.212Z,98660.06
2022-09-24T19:34:00.284Z,98658.72
2022-09-24T19:36:26.971Z,98648.72
2022-09-24T19:38:53.994Z,98653.69
2022-09-24T19:41:27.821Z,98658.38
2022-09-24T19:43:57.219Z,98660.47
2022-09-24T19:46:26.198Z,98651.91
2022-09-24T19:48:54.994Z,98662.09
2022-09-24T19:51:23.703Z,98663.13
2022-09-24T19:53:55.252Z,98659.84
2022-09-24T19:56:24.842Z,98656.13
2022-09-24T19:58:54.021Z,98657.53
2022-09-24T20:01:22.814Z,98660.84
2022-09-24T20:03:49.969Z,98659.16
2022-09-24T20:06:19.468Z,98659.25
2022-09-24T20:08:47.125Z,98661.00
2022-09-24T20:11:19.544Z,98659.31
2022-09-24T20:13:47.178Z,98657.94
2022-09-24T20:16:16.085Z,98655.75
2022-09-24T20:18:43.469Z,98654.38
2022-09-24T20:21:12.887Z,98649.97
2022-09-24T20:23:42.968Z,98655.59
2022-09-24T20:26:29.349Z,98665.50
2022-09-24T20:28:56.226Z,98658.13
2022-09-24T20:31:22.947Z,98665.75
2022-09-24T20:33:50.156Z,98668.56
2022-09-24T20:36:21.913Z,98672.09
2022-09-24T20:38:51.065Z,98670.44
2022-09-24T20:41:23.723Z,98678.34
2022-09-24T20:43:51.771Z,98678.34
2022-09-24T20:46:22.180Z,98679.69
2022-09-24T20:48:49.035Z,98676.91
2022-09-24T20:51:18.454Z,98676.91
2022-09-24T20:53:49.333Z,98680.25
2022-09-24T20:56:17.352Z,98668.56
2022-09-24T20:58:44.607Z,98674.50
2022-09-24T21:01:11.650Z,98672.53
2022-09-24T21:03:44.531Z,98677.91
2022-09-24T21:06:12.349Z,98676.59
2022-09-24T21:08:43.580Z,98675.25
2022-09-24T21:11:19.327Z,98676.28
2022-09-24T21:13:51.057Z,98671.38
2022-09-24T21:16:20.014Z,98671.22
2022-09-24T21:18:47.498Z,98670.41
2022-09-24T21:21:19.853Z,98664.25
2022-09-24T21:23:48.744Z,98674.50
2022-09-24T21:26:23.262Z,98668.19
2022-09-24T21:28:52.727Z,98670.91
2022-09-24T21:31:21.778Z,98675.19
2022-09-24T21:33:54.409Z,98675.19
2022-09-24T21:36:24.510Z,98677.22
2022-09-24T21:38:59.599Z,98676.06
2022-09-24T21:41:28.496Z,98674.66
2022-09-24T21:43:56.023Z,98678.91
2022-09-24T21:46:23.595Z,98675.28
2022-09-24T21:48:51.496Z,98679.41
2022-09-24T21:51:22.340Z,98680.56
2022-09-24T21:53:50.737Z,98674.59
2022-09-24T21:56:19.359Z,98680.88
2022-09-24T21:58:50.248Z,98682.81
2022-09-24T22:01:44.336Z,98682.03
2022-09-24T22:04:11.866Z,98681.56
2022-09-24T22:06:38.545Z,98682.88
2022-09-24T22:09:06.734Z,98684.19
2022-09-24T22:11:34.629Z,98682.56
2022-09-24T22:14:02.645Z,98683.38
2022-09-24T22:16:31.772Z,98678.59
2022-09-24T22:18:58.981Z,98680.94
2022-09-24T22:21:26.023Z,98677.28
2022-09-24T22:23:53.197Z,98683.22
2022-09-24T22:26:20.038Z,98680.25
2022-09-24T22:28:47.202Z,98687.63
2022-09-24T22:31:16.000Z,98687.31
2022-09-24T22:34:01.827Z,98684.19
2022-09-24T22:36:30.771Z,98680.25
2022-09-24T22:38:59.587Z,98675.59
2022-09-24T22:41:29.258Z,98676.28
2022-09-24T22:43:57.472Z,98673.66
2022-09-24T22:46:27.932Z,98676.44
2022-09-24T22:48:55.907Z,98672.91
2022-09-24T22:51:24.452Z,98677.56
2022-09-24T22:53:52.343Z,98680.38
2022-09-24T22:56:21.171Z,98676.75
2022-09-24T22:58:56.755Z,98675.75
2022-09-24T23:01:28.571Z,98674.25
2022-09-24T23:03:56.311Z,98673.75
2022-09-24T23:06:23.762Z,98668.13
2022-09-24T23:08:52.161Z,98676.06
2022-09-24T23:11:21.533Z,98672.25
2022-09-24T23:13:52.956Z,98672.09
2022-09-24T23:16:22.513Z,98666.16
2022-09-24T23:18:52.192Z,98659.72
2022-09-24T23:21:20.137Z,98662.53
2022-09-24T23:23:47.520Z,98659.53
2022-09-24T23:26:19.224Z,98656.31
2022-09-24T23:28:47.074Z,98655.00
2022-09-24T23:31:14.725Z,98649.41
2022-09-24T23:33:42.761Z,98660.31
2022-09-24T23:36:11.851Z,98654.69
2022-09-24T23:38:38.680Z,98652.53
2022-09-24T23:41:06.092Z,98652.41
2022-09-24T23:43:33.515Z,98654.88
2022-09-24T23:46:01.348Z,98656.34
2022-09-24T23:48:28.554Z,98658.66
2022-09-24T23:50:55.432Z,98654.09
2022-09-24T23:53:22.198Z,98654.56
2022-09-24T23:55:49.684Z,98660.81
2022-09-24T23:58:18.500Z,98659.19
